Austin Reinauer — WCX8055 — position and weather

sailwx.info

Track history (hours):
 
Tides and Currents Weather Stations Pressure Air Temp Water Temp Dewpoint Dewpoint Depression Visibility Wind Speed Wind Dir Waves Ship Positions

Austin Reinauer

Owner: REINAUER TRANSPORTATION CO, LP, STATEN ISLAND, NY. More information available from US FCC via Universal Licensing System and Coast Guard Vessel Documentation Center.

Last reported at 2015-Aug-02 13:34 UTC. Time now 2015-Aug-02 14:25 UTC.
Position N 40°39' W 074°05'.

Length 33 m; draft 6.7 m.

Type: Ship (hazmat cat B). MMSI: 366739920.

Date/timePositionNaut miles runAvg speedWind from/ knotsBaromVisibWave heightAir tempDewpointWater temp
2015-Aug-02 13:34N 40°39' W 074°05'0 0.0
2015-Aug-02 12:33N 40°39' W 074°05'0 0.0
2015-Aug-02 11:33N 40°39' W 074°05'0 0.0
2015-Aug-02 10:33N 40°39' W 074°05'0 0.0
2015-Aug-02 09:33N 40°39' W 074°05'0 0.0
2015-Aug-02 08:33N 40°39' W 074°05'0 0.0
2015-Aug-02 07:33N 40°39' W 074°05'0 0.0
2015-Aug-02 06:33N 40°39' W 074°05'0 0.0
2015-Aug-02 05:33N 40°39' W 074°05'0 0.0
2015-Aug-02 04:33N 40°39' W 074°05'0 0.0
2015-Aug-02 03:33N 40°39' W 074°05'1 1.1
2015-Aug-02 02:34N 40°39' W 074°07'0 0.0
2015-Aug-02 01:33N 40°39' W 074°07'0 0.0
2015-Aug-02 00:33N 40°39' W 074°07'1 0.5
2015-Aug-01 23:33N 40°39' W 074°07'0 0.5
2015-Aug-01 22:33N 40°38' W 074°08'2 2.1
2015-Aug-01 21:33N 40°39' W 074°05'0 0.0
2015-Aug-01 20:33N 40°39' W 074°05'0 0.0
2015-Aug-01 19:33N 40°39' W 074°05'3 2.7
2015-Aug-01 18:33N 40°37' W 074°03'1 1.0
2015-Aug-01 17:33N 40°36' W 074°03'9 8.5
2015-Aug-01 16:33N 40°44' W 073°58'6 6.4
2015-Aug-01 15:33N 40°48' W 073°52'9 9.3
2015-Aug-01 14:33N 40°54' W 073°42'10 9.7
2015-Aug-01 13:33N 40°58' W 073°31'1111.1
2015-Aug-01 12:33N 41°01' W 073°16'1110.7
2015-Aug-01 11:33N 41°02' W 073°02'1010.3
2015-Aug-01 10:33N 41°05' W 072°49'10 9.7
2015-Aug-01 09:33N 41°08' W 072°37'8 8.3
2015-Aug-01 08:33N 41°10' W 072°26'7 7.1
2015-Aug-01 07:33N 41°12' W 072°17'7 7.4
2015-Aug-01 06:33N 41°14' W 072°08'8 8.5
2015-Aug-01 05:33N 41°15' W 071°57'1110.6
2015-Aug-01 04:33N 41°17' W 071°43'1110.7
2015-Aug-01 03:33N 41°18' W 071°29'1010.3
2015-Aug-01 02:33N 41°20' W 071°15'1010.2
2015-Aug-01 01:33N 41°25' W 071°03'9 9.2
2015-Aug-01 00:33N 41°30' W 070°53'8 8.3
2015-Jul-31 23:33N 41°34' W 070°44'47 6.7
2015-Jul-31 16:31N 42°20' W 070°58'5 5.4
2015-Jul-31 15:33N 42°23' W 071°03'0 0.0
2015-Jul-31 12:30N 42°23' W 071°03'0 0.0
2015-Jul-31 11:32N 42°23' W 071°03'0 0.0
2015-Jul-31 10:33N 42°23' W 071°03'0 0.0
2015-Jul-31 09:33N 42°23' W 071°03'0 0.0
2015-Jul-31 08:33N 42°23' W 071°03'0 0.0
2015-Jul-31 07:33N 42°23' W 071°03'0 0.0
2015-Jul-31 06:33N 42°23' W 071°03'0 0.0
2015-Jul-31 05:32N 42°23' W 071°03'0 0.0
2015-Jul-31 04:33N 42°23' W 071°03'0 0.0
2015-Jul-31 03:33N 42°23' W 071°03'0 0.0
2015-Jul-31 02:32N 42°23' W 071°03'0 0.0
2015-Jul-31 01:33N 42°23' W 071°03'0 0.0
2015-Jul-31 00:33N 42°23' W 071°03'0 0.0
2015-Jul-30 23:33N 42°23' W 071°03'0 0.0
2015-Jul-30 22:34N 42°23' W 071°03'44 6.9
2015-Jul-30 16:13N 41°48' W 070°28'6 5.8
2015-Jul-30 15:13N 41°45' W 070°35'4 5.4
2015-Jul-30 14:34N 41°43' W 070°39'9 9.0
2015-Jul-30 13:32N 41°35' W 070°43'9 9.7
2015-Jul-30 12:34N 41°29' W 070°53'1010.2
2015-Jul-30 11:34N 41°24' W 071°05'10 9.6
2015-Jul-30 10:34N 41°24' W 071°18'7 6.8
2015-Jul-30 09:33N 41°31' W 071°21'9 8.9
2015-Jul-30 08:34N 41°39' W 071°19'8 8.0
2015-Jul-30 07:33N 41°47' W 071°22'0 0.1
2015-Jul-30 06:34N 41°47' W 071°22'0 0.0
2015-Jul-30 05:34N 41°47' W 071°22'0 0.0
2015-Jul-30 04:30N 41°47' W 071°22'0 0.0
2015-Jul-30 03:33N 41°47' W 071°22'0 0.0
2015-Jul-30 02:34N 41°47' W 071°22'0 0.0
2015-Jul-30 01:33N 41°47' W 071°22'0 0.0
2015-Jul-30 00:33N 41°47' W 071°22'0 0.0
2015-Jul-29 23:34N 41°47' W 071°22'0 0.0
2015-Jul-29 22:33N 41°47' W 071°22'0 0.0
2015-Jul-29 21:34N 41°47' W 071°22'0 0.0
2015-Jul-29 20:33N 41°47' W 071°22'0 0.0
2015-Jul-29 19:15N 41°47' W 071°22'0 0.0
2015-Jul-29 18:29N 41°47' W 071°22'0 0.0
2015-Jul-29 17:33N 41°47' W 071°22'0 0.0
2015-Jul-29 16:30N 41°47' W 071°22'0 0.0
2015-Jul-29 15:31N 41°47' W 071°22'5 5.3
2015-Jul-29 14:31N 41°42' W 071°20'9 8.9
2015-Jul-29 13:34N 41°34' W 071°19'7 6.9
2015-Jul-29 12:34N 41°27' W 071°23'8 8.0
2015-Jul-29 11:33N 41°20' W 071°27'8 8.5
2015-Jul-29 10:34N 41°11' W 071°29'7 6.7
2015-Jul-29 09:34N 41°06' W 071°34'8 8.1
2015-Jul-29 08:34N 41°03' W 071°44'9 8.5
2015-Jul-29 07:33N 40°59' W 071°54'9 8.6
2015-Jul-29 06:34N 40°55' W 072°04'9 8.7
2015-Jul-29 05:34N 40°52' W 072°15'9 8.7
2015-Jul-29 04:34N 40°48' W 072°25'9 8.9
2015-Jul-29 03:33N 40°45' W 072°36'9 8.7
2015-Jul-29 02:34N 40°42' W 072°47'9 9.2
2015-Jul-29 01:34N 40°38' W 072°58'9 9.3
2015-Jul-29 00:34N 40°35' W 073°10'9 9.3
2015-Jul-28 23:34N 40°33' W 073°22'9 9.3
2015-Jul-28 22:34N 40°30' W 073°33'10 9.4
2015-Jul-28 21:31N 40°30' W 073°46'8 8.2
2015-Jul-28 20:34N 40°30' W 073°57'7 6.9
2015-Jul-28 19:34N 40°35' W 074°02'4 4.1
2015-Jul-28 18:34N 40°39' W 074°03'0 0.0
2015-Jul-28 17:34N 40°39' W 074°03'6 6.0
2015-Jul-28 16:33N 40°39' W 074°11'1 1.5
2015-Jul-28 15:34N 40°38' W 074°12'0 0.0
2015-Jul-28 14:33N 40°38' W 074°12'0 0.0
2015-Jul-28 13:34N 40°38' W 074°12'0 0.0
2015-Jul-28 12:34N 40°38' W 074°12'0 0.0
2015-Jul-28 11:33N 40°38' W 074°12'0 0.0
2015-Jul-28 10:34N 40°38' W 074°12'0 0.0
2015-Jul-28 09:33N 40°38' W 074°12'0 0.0
2015-Jul-28 08:34N 40°38' W 074°12'0 0.0
2015-Jul-28 07:34N 40°38' W 074°12'0 0.0
2015-Jul-28 06:33N 40°38' W 074°12'0 0.0
2015-Jul-28 05:34N 40°38' W 074°12'0 0.0
2015-Jul-28 04:34N 40°38' W 074°12'0 0.0
2015-Jul-28 03:33N 40°38' W 074°12'0 0.0
2015-Jul-28 02:34N 40°38' W 074°12'0 0.0
2015-Jul-28 01:34N 40°38' W 074°12'0 0.0
2015-Jul-28 00:34N 40°38' W 074°12'0 0.0
2015-Jul-27 23:34N 40°38' W 074°12'0 0.0
2015-Jul-27 22:34N 40°38' W 074°12'0 0.0
2015-Jul-27 21:34N 40°38' W 074°12'0 0.0
2015-Jul-27 20:34N 40°38' W 074°12'0 0.0
2015-Jul-27 19:34N 40°38' W 074°12'0 0.0
2015-Jul-27 18:34N 40°38' W 074°12'0 0.0
2015-Jul-27 17:34N 40°38' W 074°12'0 0.0
2015-Jul-27 16:34N 40°38' W 074°12'0 0.0
2015-Jul-27 15:34N 40°38' W 074°12'0 0.0
2015-Jul-27 14:34N 40°38' W 074°12'3 3.0
2015-Jul-27 13:34N 40°39' W 074°08'5 5.0
2015-Jul-27 12:33N 40°40' W 074°02'0 0.1
2015-Jul-27 11:34N 40°40' W 074°02'0 0.1
2015-Jul-27 10:34N 40°40' W 074°02'0 0.0
2015-Jul-27 09:34N 40°40' W 074°02'0 0.0
2015-Jul-27 08:34N 40°40' W 074°02'0 0.0
2015-Jul-27 07:34N 40°40' W 074°02'0 0.1
2015-Jul-27 06:34N 40°40' W 074°02'0 0.1
2015-Jul-27 05:34N 40°40' W 074°02'0 0.0
2015-Jul-27 04:34N 40°40' W 074°02'0 0.0
2015-Jul-27 03:34N 40°40' W 074°02'0 0.0
2015-Jul-27 02:34N 40°40' W 074°02'0 0.0
2015-Jul-27 01:33N 40°40' W 074°02'0 0.2
2015-Jul-27 00:34N 40°40' W 074°02'0 0.1
2015-Jul-26 23:34N 40°40' W 074°02'0 0.1
2015-Jul-26 22:34N 40°40' W 074°02'0 0.0
2015-Jul-26 21:34N 40°40' W 074°02'0 0.0
2015-Jul-26 20:34N 40°40' W 074°02'0 0.0
2015-Jul-26 19:34N 40°40' W 074°02'0 0.0
2015-Jul-26 18:34N 40°40' W 074°02'0 0.1
2015-Jul-26 17:34N 40°40' W 074°02'0 0.2
2015-Jul-26 16:34N 40°40' W 074°02'0 0.0
2015-Jul-26 15:34N 40°40' W 074°02'0 0.0
2015-Jul-26 14:34N 40°40' W 074°02'0 0.0
2015-Jul-26 13:34N 40°40' W 074°02'0 0.0
2015-Jul-26 12:34N 40°40' W 074°02'0 0.0
2015-Jul-26 11:34N 40°40' W 074°02'0 0.1
2015-Jul-26 10:34N 40°40' W 074°02'0 0.1
2015-Jul-26 09:33N 40°40' W 074°02'0 0.0
2015-Jul-26 08:34N 40°40' W 074°02'0 0.1
2015-Jul-26 07:34N 40°40' W 074°02'0 0.1
2015-Jul-26 06:34N 40°40' W 074°02'0 0.0
2015-Jul-26 05:34N 40°40' W 074°02'0 0.1
2015-Jul-26 04:34N 40°40' W 074°02'3 3.1
2015-Jul-26 03:33N 40°39' W 074°06'0 0.1
2015-Jul-26 02:34N 40°39' W 074°06'0 0.0
2015-Jul-26 01:34N 40°39' W 074°06'0 0.0
2015-Jul-26 00:34N 40°39' W 074°06'0 0.0
2015-Jul-25 23:34N 40°39' W 074°06'0 0.0
2015-Jul-25 22:34N 40°39' W 074°06'0 0.0
2015-Jul-25 21:34N 40°39' W 074°06'0 0.0
2015-Jul-25 20:34N 40°39' W 074°06'2 1.7
2015-Jul-25 19:34N 40°39' W 074°04'7 7.4
2015-Jul-25 18:33N 40°45' W 073°58'7 5.6
2015-Jul-25 17:23N 40°48' W 073°50'7 8.6
2015-Jul-25 16:33N 40°53' W 073°43'1110.4
2015-Jul-25 15:33N 40°58' W 073°31'1010.2
2015-Jul-25 14:33N 41°02' W 073°19'24 0.9
2015-Jul-24 12:14N 41°18' W 072°55'0 0.0
2015-Jul-24 11:32N 41°18' W 072°55'0 0.0
2015-Jul-24 10:32N 41°18' W 072°55'0 0.0
2015-Jul-24 09:32N 41°18' W 072°55'4 3.7
2015-Jul-24 08:34N 41°14' W 072°55'5 5.5
2015-Jul-24 07:34N 41°10' W 072°59'8 8.4
2015-Jul-24 06:34N 41°05' W 073°08'9 8.9
2015-Jul-24 05:33N 41°02' W 073°19'9 9.3
2015-Jul-24 04:33N 40°58' W 073°31'9 9.1
2015-Jul-24 03:33N 40°54' W 073°41'8 8.3
2015-Jul-24 02:34N 40°48' W 073°49'6 6.5
2015-Jul-24 01:33N 40°46' W 073°57'7 6.5
2015-Jul-24 00:33N 40°40' W 074°02'2 2.3
2015-Jul-23 23:31N 40°39' W 074°05'0 0.0
2015-Jul-23 22:31N 40°39' W 074°05'0 0.0
2015-Jul-23 21:31N 40°39' W 074°05'0 0.0
2015-Jul-23 20:31N 40°39' W 074°05'1 1.2
2015-Jul-23 19:33N 40°39' W 074°07'1 0.8
2015-Jul-23 18:31N 40°39' W 074°08'  
Track history (hours):
 
Tides and Currents Weather Stations Pressure Air Temp Water Temp Dewpoint Dewpoint Depression Visibility Wind Speed Wind Dir Waves Ship Positions

Austin Reinauer

Owner: REINAUER TRANSPORTATION CO, LP, STATEN ISLAND, NY. More information available from US FCC via Universal Licensing System and Coast Guard Vessel Documentation Center.

Last reported at 2015-Aug-02 13:34 UTC. Time now 2015-Aug-02 14:25 UTC.
Position N 40°39' W 074°05'.

Length 33 m; draft 6.7 m.

Type: Ship (hazmat cat B). MMSI: 366739920.

Date/timePositionNaut miles runAvg speedWind from/ knotsBaromVisibWave heightAir tempDewpointWater temp
2015-Aug-02 13:34N 40°39' W 074°05'0 0.0
2015-Aug-02 12:33N 40°39' W 074°05'0 0.0
2015-Aug-02 11:33N 40°39' W 074°05'0 0.0
2015-Aug-02 10:33N 40°39' W 074°05'0 0.0
2015-Aug-02 09:33N 40°39' W 074°05'0 0.0
2015-Aug-02 08:33N 40°39' W 074°05'0 0.0
2015-Aug-02 07:33N 40°39' W 074°05'0 0.0
2015-Aug-02 06:33N 40°39' W 074°05'0 0.0
2015-Aug-02 05:33N 40°39' W 074°05'0 0.0
2015-Aug-02 04:33N 40°39' W 074°05'0 0.0
2015-Aug-02 03:33N 40°39' W 074°05'1 1.1
2015-Aug-02 02:34N 40°39' W 074°07'0 0.0
2015-Aug-02 01:33N 40°39' W 074°07'0 0.0
2015-Aug-02 00:33N 40°39' W 074°07'1 0.5
2015-Aug-01 23:33N 40°39' W 074°07'0 0.5
2015-Aug-01 22:33N 40°38' W 074°08'2 2.1
2015-Aug-01 21:33N 40°39' W 074°05'0 0.0
2015-Aug-01 20:33N 40°39' W 074°05'0 0.0
2015-Aug-01 19:33N 40°39' W 074°05'3 2.7
2015-Aug-01 18:33N 40°37' W 074°03'1 1.0
2015-Aug-01 17:33N 40°36' W 074°03'9 8.5
2015-Aug-01 16:33N 40°44' W 073°58'6 6.4
2015-Aug-01 15:33N 40°48' W 073°52'9 9.3
2015-Aug-01 14:33N 40°54' W 073°42'10 9.7
2015-Aug-01 13:33N 40°58' W 073°31'1111.1
2015-Aug-01 12:33N 41°01' W 073°16'1110.7
2015-Aug-01 11:33N 41°02' W 073°02'1010.3
2015-Aug-01 10:33N 41°05' W 072°49'10 9.7
2015-Aug-01 09:33N 41°08' W 072°37'8 8.3
2015-Aug-01 08:33N 41°10' W 072°26'7 7.1
2015-Aug-01 07:33N 41°12' W 072°17'7 7.4
2015-Aug-01 06:33N 41°14' W 072°08'8 8.5
2015-Aug-01 05:33N 41°15' W 071°57'1110.6
2015-Aug-01 04:33N 41°17' W 071°43'1110.7
2015-Aug-01 03:33N 41°18' W 071°29'1010.3
2015-Aug-01 02:33N 41°20' W 071°15'1010.2
2015-Aug-01 01:33N 41°25' W 071°03'9 9.2
2015-Aug-01 00:33N 41°30' W 070°53'8 8.3
2015-Jul-31 23:33N 41°34' W 070°44'47 6.7
2015-Jul-31 16:31N 42°20' W 070°58'5 5.4
2015-Jul-31 15:33N 42°23' W 071°03'0 0.0
2015-Jul-31 12:30N 42°23' W 071°03'0 0.0
2015-Jul-31 11:32N 42°23' W 071°03'0 0.0
2015-Jul-31 10:33N 42°23' W 071°03'0 0.0
2015-Jul-31 09:33N 42°23' W 071°03'0 0.0
2015-Jul-31 08:33N 42°23' W 071°03'0 0.0
2015-Jul-31 07:33N 42°23' W 071°03'0 0.0
2015-Jul-31 06:33N 42°23' W 071°03'0 0.0
2015-Jul-31 05:32N 42°23' W 071°03'0 0.0
2015-Jul-31 04:33N 42°23' W 071°03'0 0.0
2015-Jul-31 03:33N 42°23' W 071°03'0 0.0
2015-Jul-31 02:32N 42°23' W 071°03'0 0.0
2015-Jul-31 01:33N 42°23' W 071°03'0 0.0
2015-Jul-31 00:33N 42°23' W 071°03'0 0.0
2015-Jul-30 23:33N 42°23' W 071°03'0 0.0
2015-Jul-30 22:34N 42°23' W 071°03'44 6.9
2015-Jul-30 16:13N 41°48' W 070°28'6 5.8
2015-Jul-30 15:13N 41°45' W 070°35'4 5.4
2015-Jul-30 14:34N 41°43' W 070°39'9 9.0
2015-Jul-30 13:32N 41°35' W 070°43'9 9.7
2015-Jul-30 12:34N 41°29' W 070°53'1010.2
2015-Jul-30 11:34N 41°24' W 071°05'10 9.6
2015-Jul-30 10:34N 41°24' W 071°18'7 6.8
2015-Jul-30 09:33N 41°31' W 071°21'9 8.9
2015-Jul-30 08:34N 41°39' W 071°19'8 8.0
2015-Jul-30 07:33N 41°47' W 071°22'0 0.1
2015-Jul-30 06:34N 41°47' W 071°22'0 0.0
2015-Jul-30 05:34N 41°47' W 071°22'0 0.0
2015-Jul-30 04:30N 41°47' W 071°22'0 0.0
2015-Jul-30 03:33N 41°47' W 071°22'0 0.0
2015-Jul-30 02:34N 41°47' W 071°22'0 0.0
2015-Jul-30 01:33N 41°47' W 071°22'0 0.0
2015-Jul-30 00:33N 41°47' W 071°22'0 0.0
2015-Jul-29 23:34N 41°47' W 071°22'0 0.0
2015-Jul-29 22:33N 41°47' W 071°22'0 0.0
2015-Jul-29 21:34N 41°47' W 071°22'0 0.0
2015-Jul-29 20:33N 41°47' W 071°22'0 0.0
2015-Jul-29 19:15N 41°47' W 071°22'0 0.0
2015-Jul-29 18:29N 41°47' W 071°22'0 0.0
2015-Jul-29 17:33N 41°47' W 071°22'0 0.0
2015-Jul-29 16:30N 41°47' W 071°22'0 0.0
2015-Jul-29 15:31N 41°47' W 071°22'5 5.3
2015-Jul-29 14:31N 41°42' W 071°20'9 8.9
2015-Jul-29 13:34N 41°34' W 071°19'7 6.9
2015-Jul-29 12:34N 41°27' W 071°23'8 8.0
2015-Jul-29 11:33N 41°20' W 071°27'8 8.5
2015-Jul-29 10:34N 41°11' W 071°29'7 6.7
2015-Jul-29 09:34N 41°06' W 071°34'8 8.1
2015-Jul-29 08:34N 41°03' W 071°44'9 8.5
2015-Jul-29 07:33N 40°59' W 071°54'9 8.6
2015-Jul-29 06:34N 40°55' W 072°04'9 8.7
2015-Jul-29 05:34N 40°52' W 072°15'9 8.7
2015-Jul-29 04:34N 40°48' W 072°25'9 8.9
2015-Jul-29 03:33N 40°45' W 072°36'9 8.7
2015-Jul-29 02:34N 40°42' W 072°47'9 9.2
2015-Jul-29 01:34N 40°38' W 072°58'9 9.3
2015-Jul-29 00:34N 40°35' W 073°10'9 9.3
2015-Jul-28 23:34N 40°33' W 073°22'9 9.3
2015-Jul-28 22:34N 40°30' W 073°33'10 9.4
2015-Jul-28 21:31N 40°30' W 073°46'8 8.2
2015-Jul-28 20:34N 40°30' W 073°57'7 6.9
2015-Jul-28 19:34N 40°35' W 074°02'4 4.1
2015-Jul-28 18:34N 40°39' W 074°03'0 0.0
2015-Jul-28 17:34N 40°39' W 074°03'6 6.0
2015-Jul-28 16:33N 40°39' W 074°11'1 1.5
2015-Jul-28 15:34N 40°38' W 074°12'0 0.0
2015-Jul-28 14:33N 40°38' W 074°12'0 0.0
2015-Jul-28 13:34N 40°38' W 074°12'0 0.0
2015-Jul-28 12:34N 40°38' W 074°12'0 0.0
2015-Jul-28 11:33N 40°38' W 074°12'0 0.0
2015-Jul-28 10:34N 40°38' W 074°12'0 0.0
2015-Jul-28 09:33N 40°38' W 074°12'0 0.0
2015-Jul-28 08:34N 40°38' W 074°12'0 0.0
2015-Jul-28 07:34N 40°38' W 074°12'0 0.0
2015-Jul-28 06:33N 40°38' W 074°12'0 0.0
2015-Jul-28 05:34N 40°38' W 074°12'0 0.0
2015-Jul-28 04:34N 40°38' W 074°12'0 0.0
2015-Jul-28 03:33N 40°38' W 074°12'0 0.0
2015-Jul-28 02:34N 40°38' W 074°12'0 0.0
2015-Jul-28 01:34N 40°38' W 074°12'0 0.0
2015-Jul-28 00:34N 40°38' W 074°12'0 0.0
2015-Jul-27 23:34N 40°38' W 074°12'0 0.0
2015-Jul-27 22:34N 40°38' W 074°12'0 0.0
2015-Jul-27 21:34N 40°38' W 074°12'0 0.0
2015-Jul-27 20:34N 40°38' W 074°12'0 0.0
2015-Jul-27 19:34N 40°38' W 074°12'0 0.0
2015-Jul-27 18:34N 40°38' W 074°12'0 0.0
2015-Jul-27 17:34N 40°38' W 074°12'0 0.0
2015-Jul-27 16:34N 40°38' W 074°12'0 0.0
2015-Jul-27 15:34N 40°38' W 074°12'0 0.0
2015-Jul-27 14:34N 40°38' W 074°12'3 3.0
2015-Jul-27 13:34N 40°39' W 074°08'5 5.0
2015-Jul-27 12:33N 40°40' W 074°02'0 0.1
2015-Jul-27 11:34N 40°40' W 074°02'0 0.1
2015-Jul-27 10:34N 40°40' W 074°02'0 0.0
2015-Jul-27 09:34N 40°40' W 074°02'0 0.0
2015-Jul-27 08:34N 40°40' W 074°02'0 0.0
2015-Jul-27 07:34N 40°40' W 074°02'0 0.1
2015-Jul-27 06:34N 40°40' W 074°02'0 0.1
2015-Jul-27 05:34N 40°40' W 074°02'0 0.0
2015-Jul-27 04:34N 40°40' W 074°02'0 0.0
2015-Jul-27 03:34N 40°40' W 074°02'0 0.0
2015-Jul-27 02:34N 40°40' W 074°02'0 0.0
2015-Jul-27 01:33N 40°40' W 074°02'0 0.2
2015-Jul-27 00:34N 40°40' W 074°02'0 0.1
2015-Jul-26 23:34N 40°40' W 074°02'0 0.1
2015-Jul-26 22:34N 40°40' W 074°02'0 0.0
2015-Jul-26 21:34N 40°40' W 074°02'0 0.0
2015-Jul-26 20:34N 40°40' W 074°02'0 0.0
2015-Jul-26 19:34N 40°40' W 074°02'0 0.0
2015-Jul-26 18:34N 40°40' W 074°02'0 0.1
2015-Jul-26 17:34N 40°40' W 074°02'0 0.2
2015-Jul-26 16:34N 40°40' W 074°02'0 0.0
2015-Jul-26 15:34N 40°40' W 074°02'0 0.0
2015-Jul-26 14:34N 40°40' W 074°02'0 0.0
2015-Jul-26 13:34N 40°40' W 074°02'0 0.0
2015-Jul-26 12:34N 40°40' W 074°02'0 0.0
2015-Jul-26 11:34N 40°40' W 074°02'0 0.1
2015-Jul-26 10:34N 40°40' W 074°02'0 0.1
2015-Jul-26 09:33N 40°40' W 074°02'0 0.0
2015-Jul-26 08:34N 40°40' W 074°02'0 0.1
2015-Jul-26 07:34N 40°40' W 074°02'0 0.1
2015-Jul-26 06:34N 40°40' W 074°02'0 0.0
2015-Jul-26 05:34N 40°40' W 074°02'0 0.1
2015-Jul-26 04:34N 40°40' W 074°02'3 3.1
2015-Jul-26 03:33N 40°39' W 074°06'0 0.1
2015-Jul-26 02:34N 40°39' W 074°06'0 0.0
2015-Jul-26 01:34N 40°39' W 074°06'0 0.0
2015-Jul-26 00:34N 40°39' W 074°06'0 0.0
2015-Jul-25 23:34N 40°39' W 074°06'0 0.0
2015-Jul-25 22:34N 40°39' W 074°06'0 0.0
2015-Jul-25 21:34N 40°39' W 074°06'0 0.0
2015-Jul-25 20:34N 40°39' W 074°06'2 1.7
2015-Jul-25 19:34N 40°39' W 074°04'7 7.4
2015-Jul-25 18:33N 40°45' W 073°58'7 5.6
2015-Jul-25 17:23N 40°48' W 073°50'7 8.6
2015-Jul-25 16:33N 40°53' W 073°43'1110.4
2015-Jul-25 15:33N 40°58' W 073°31'1010.2
2015-Jul-25 14:33N 41°02' W 073°19'24 0.9
2015-Jul-24 12:14N 41°18' W 072°55'0 0.0
2015-Jul-24 11:32N 41°18' W 072°55'0 0.0
2015-Jul-24 10:32N 41°18' W 072°55'0 0.0
2015-Jul-24 09:32N 41°18' W 072°55'4 3.7
2015-Jul-24 08:34N 41°14' W 072°55'5 5.5
2015-Jul-24 07:34N 41°10' W 072°59'8 8.4
2015-Jul-24 06:34N 41°05' W 073°08'9 8.9
2015-Jul-24 05:33N 41°02' W 073°19'9 9.3
2015-Jul-24 04:33N 40°58' W 073°31'9 9.1
2015-Jul-24 03:33N 40°54' W 073°41'8 8.3
2015-Jul-24 02:34N 40°48' W 073°49'6 6.5
2015-Jul-24 01:33N 40°46' W 073°57'7 6.5
2015-Jul-24 00:33N 40°40' W 074°02'2 2.3
2015-Jul-23 23:31N 40°39' W 074°05'0 0.0
2015-Jul-23 22:31N 40°39' W 074°05'0 0.0
2015-Jul-23 21:31N 40°39' W 074°05'0 0.0
2015-Jul-23 20:31N 40°39' W 074°05'1 1.2
2015-Jul-23 19:33N 40°39' W 074°07'1 0.8
2015-Jul-23 18:31N 40°39' W 074°08'  

Dump ship's entire track history